sensor_id;sensor_type;location;lat;lon;timestamp;P1;durP1;ratioP1;P2;durP2;ratioP2
27303;SDS011;14791;52.392;13.092;2023-02-15T00:00:27;10.50;;;9.60;;
27303;SDS011;14791;52.392;13.092;2023-02-15T00:02:56;9.43;;;8.83;;
27303;SDS011;14791;52.392;13.092;2023-02-15T00:05:25;11.20;;;10.03;;
27303;SDS011;14791;52.392;13.092;2023-02-15T00:07:56;11.10;;;10.07;;
27303;SDS011;14791;52.392;13.092;2023-02-15T00:10:25;11.37;;;10.43;;
27303;SDS011;14791;52.392;13.092;2023-02-15T00:12:54;11.17;;;10.07;;
27303;SDS011;14791;52.392;13.092;2023-02-15T00:15:23;11.63;;;10.67;;
27303;SDS011;14791;52.392;13.092;2023-02-15T00:17:53;10.57;;;9.67;;
27303;SDS011;14791;52.392;13.092;2023-02-15T00:20:21;9.50;;;8.70;;
27303;SDS011;14791;52.392;13.092;2023-02-15T00:22:50;10.07;;;9.27;;
27303;SDS011;14791;52.392;13.092;2023-02-15T00:25:19;11.07;;;10.17;;
27303;SDS011;14791;52.392;13.092;2023-02-15T00:27:48;11.50;;;10.50;;
27303;SDS011;14791;52.392;13.092;2023-02-15T00:30:17;10.27;;;9.40;;
27303;SDS011;14791;52.392;13.092;2023-02-15T00:32:47;9.77;;;8.97;;
27303;SDS011;14791;52.392;13.092;2023-02-15T00:35:16;10.00;;;9.17;;
27303;SDS011;14791;52.392;13.092;2023-02-15T00:37:45;10.83;;;9.87;;
27303;SDS011;14791;52.392;13.092;2023-02-15T00:40:14;11.47;;;10.47;;
27303;SDS011;14791;52.392;13.092;2023-02-15T00:42:43;12.97;;;11.70;;
27303;SDS011;14791;52.392;13.092;2023-02-15T00:45:12;11.57;;;10.47;;
27303;SDS011;14791;52.392;13.092;2023-02-15T00:47:41;10.30;;;9.43;;
27303;SDS011;14791;52.392;13.092;2023-02-15T00:50:10;10.33;;;9.43;;
27303;SDS011;14791;52.392;13.092;2023-02-15T00:52:39;10.47;;;9.57;;
27303;SDS011;14791;52.392;13.092;2023-02-15T00:55:08;11.43;;;10.37;;
27303;SDS011;14791;52.392;13.092;2023-02-15T00:57:37;12.10;;;10.90;;
27303;SDS011;14791;52.392;13.092;2023-02-15T01:00:06;10.67;;;9.67;;
27303;SDS011;14791;52.392;13.092;2023-02-15T01:02:35;10.30;;;9.47;;
27303;SDS011;14791;52.392;13.092;2023-02-15T01:05:04;10.27;;;8.93;;
27303;SDS011;14791;52.392;13.092;2023-02-15T01:07:34;9.17;;;8.40;;
27303;SDS011;14791;52.392;13.092;2023-02-15T01:10:03;12.53;;;11.20;;
27303;SDS011;14791;52.392;13.092;2023-02-15T01:12:34;10.37;;;9.47;;
27303;SDS011;14791;52.392;13.092;2023-02-15T01:15:03;9.83;;;9.03;;
27303;SDS011;14791;52.392;13.092;2023-02-15T01:17:32;9.33;;;8.63;;
27303;SDS011;14791;52.392;13.092;2023-02-15T01:20:04;11.27;;;10.37;;
27303;SDS011;14791;52.392;13.092;2023-02-15T01:22:34;11.60;;;10.60;;
27303;SDS011;14791;52.392;13.092;2023-02-15T01:25:03;11.27;;;10.07;;
27303;SDS011;14791;52.392;13.092;2023-02-15T01:27:32;11.00;;;10.10;;
27303;SDS011;14791;52.392;13.092;2023-02-15T01:30:01;10.70;;;9.70;;
27303;SDS011;14791;52.392;13.092;2023-02-15T01:32:31;10.63;;;9.70;;
27303;SDS011;14791;52.392;13.092;2023-02-15T01:35:00;9.60;;;8.83;;
27303;SDS011;14791;52.392;13.092;2023-02-15T01:37:30;9.53;;;8.73;;
27303;SDS011;14791;52.392;13.092;2023-02-15T01:40:00;11.07;;;10.17;;
27303;SDS011;14791;52.392;13.092;2023-02-15T01:42:31;9.07;;;8.37;;
27303;SDS011;14791;52.392;13.092;2023-02-15T01:45:04;10.33;;;9.43;;
27303;SDS011;14791;52.392;13.092;2023-02-15T01:48:02;10.27;;;9.30;;
27303;SDS011;14791;52.392;13.092;2023-02-15T01:50:40;9.57;;;8.83;;
27303;SDS011;14791;52.392;13.092;2023-02-15T01:53:19;10.27;;;9.27;;
27303;SDS011;14791;52.392;13.092;2023-02-15T01:56:14;8.93;;;8.20;;
27303;SDS011;14791;52.392;13.092;2023-02-15T01:58:46;10.40;;;9.50;;
27303;SDS011;14791;52.392;13.092;2023-02-15T02:01:18;9.00;;;8.30;;
27303;SDS011;14791;52.392;13.092;2023-02-15T02:03:59;9.90;;;9.20;;
27303;SDS011;14791;52.392;13.092;2023-02-15T02:06:30;11.03;;;9.87;;
27303;SDS011;14791;52.392;13.092;2023-02-15T02:09:02;10.97;;;10.07;;
27303;SDS011;14791;52.392;13.092;2023-02-15T02:11:31;10.87;;;9.93;;
27303;SDS011;14791;52.392;13.092;2023-02-15T02:14:01;11.70;;;10.60;;
27303;SDS011;14791;52.392;13.092;2023-02-15T02:19:31;10.93;;;9.93;;
27303;SDS011;14791;52.392;13.092;2023-02-15T02:22:08;11.53;;;10.50;;
27303;SDS011;14791;52.392;13.092;2023-02-15T02:33:46;8.93;;;8.33;;
27303;SDS011;14791;52.392;13.092;2023-02-15T02:41:44;11.70;;;10.63;;
27303;SDS011;14791;52.392;13.092;2023-02-15T02:44:36;11.23;;;10.23;;
27303;SDS011;14791;52.392;13.092;2023-02-15T02:47:15;10.67;;;9.67;;
27303;SDS011;14791;52.392;13.092;2023-02-15T02:49:48;10.83;;;9.70;;
27303;SDS011;14791;52.392;13.092;2023-02-15T02:55:09;10.60;;;9.70;;
27303;SDS011;14791;52.392;13.092;2023-02-15T02:57:48;11.90;;;10.80;;
27303;SDS011;14791;52.392;13.092;2023-02-15T03:00:17;11.60;;;10.03;;
27303;SDS011;14791;52.392;13.092;2023-02-15T03:02:50;12.60;;;11.40;;
27303;SDS011;14791;52.392;13.092;2023-02-15T03:05:22;12.93;;;10.17;;
27303;SDS011;14791;52.392;13.092;2023-02-15T03:07:53;9.97;;;9.17;;
27303;SDS011;14791;52.392;13.092;2023-02-15T03:10:28;11.17;;;10.07;;
27303;SDS011;14791;52.392;13.092;2023-02-15T03:12:57;12.27;;;11.07;;
27303;SDS011;14791;52.392;13.092;2023-02-15T03:15:28;11.87;;;10.67;;
27303;SDS011;14791;52.392;13.092;2023-02-15T03:18:00;11.43;;;10.40;;
27303;SDS011;14791;52.392;13.092;2023-02-15T03:20:32;12.10;;;11.03;;
27303;SDS011;14791;52.392;13.092;2023-02-15T03:23:06;11.10;;;10.03;;
27303;SDS011;14791;52.392;13.092;2023-02-15T03:25:44;12.20;;;11.03;;
27303;SDS011;14791;52.392;13.092;2023-02-15T03:28:15;12.23;;;11.00;;
27303;SDS011;14791;52.392;13.092;2023-02-15T03:30:46;14.20;;;9.93;;
27303;SDS011;14791;52.392;13.092;2023-02-15T03:33:17;10.07;;;9.17;;
27303;SDS011;14791;52.392;13.092;2023-02-15T03:35:50;11.10;;;10.00;;
27303;SDS011;14791;52.392;13.092;2023-02-15T03:39:12;10.50;;;9.40;;
27303;SDS011;14791;52.392;13.092;2023-02-15T03:41:20;10.30;;;9.40;;
27303;SDS011;14791;52.392;13.092;2023-02-15T03:43:52;10.07;;;9.23;;
27303;SDS011;14791;52.392;13.092;2023-02-15T03:46:35;10.57;;;9.37;;
27303;SDS011;14791;52.392;13.092;2023-02-15T03:49:09;10.03;;;9.23;;
27303;SDS011;14791;52.392;13.092;2023-02-15T03:51:40;10.33;;;9.40;;
27303;SDS011;14791;52.392;13.092;2023-02-15T03:54:12;11.10;;;10.10;;
27303;SDS011;14791;52.392;13.092;2023-02-15T03:56:46;11.77;;;10.60;;
27303;SDS011;14791;52.392;13.092;2023-02-15T03:59:18;10.50;;;9.60;;
27303;SDS011;14791;52.392;13.092;2023-02-15T04:02:11;11.13;;;10.20;;
27303;SDS011;14791;52.392;13.092;2023-02-15T04:04:43;11.13;;;10.13;;
27303;SDS011;14791;52.392;13.092;2023-02-15T04:07:14;10.17;;;9.33;;
27303;SDS011;14791;52.392;13.092;2023-02-15T04:09:43;10.37;;;9.47;;
27303;SDS011;14791;52.392;13.092;2023-02-15T04:12:30;11.63;;;10.60;;
27303;SDS011;14791;52.392;13.092;2023-02-15T04:14:59;12.40;;;11.23;;
27303;SDS011;14791;52.392;13.092;2023-02-15T04:17:46;10.57;;;9.67;;
27303;SDS011;14791;52.392;13.092;2023-02-15T04:20:15;9.87;;;9.07;;
27303;SDS011;14791;52.392;13.092;2023-02-15T04:23:05;9.20;;;8.53;;
27303;SDS011;14791;52.392;13.092;2023-02-15T04:25:51;8.73;;;8.07;;
27303;SDS011;14791;52.392;13.092;2023-02-15T04:28:20;11.67;;;10.57;;
27303;SDS011;14791;52.392;13.092;2023-02-15T04:30:52;12.40;;;11.20;;
27303;SDS011;14791;52.392;13.092;2023-02-15T04:33:21;11.50;;;10.43;;
27303;SDS011;14791;52.392;13.092;2023-02-15T04:35:50;11.13;;;10.03;;
27303;SDS011;14791;52.392;13.092;2023-02-15T04:38:19;12.93;;;11.73;;
27303;SDS011;14791;52.392;13.092;2023-02-15T04:40:50;14.00;;;12.53;;
27303;SDS011;14791;52.392;13.092;2023-02-15T04:43:19;16.57;;;12.63;;
27303;SDS011;14791;52.392;13.092;2023-02-15T04:45:48;14.33;;;12.87;;
27303;SDS011;14791;52.392;13.092;2023-02-15T04:48:18;16.23;;;14.00;;
27303;SDS011;14791;52.392;13.092;2023-02-15T04:50:47;14.23;;;11.70;;
27303;SDS011;14791;52.392;13.092;2023-02-15T04:53:15;16.53;;;13.23;;
27303;SDS011;14791;52.392;13.092;2023-02-15T04:55:45;16.90;;;12.97;;
27303;SDS011;14791;52.392;13.092;2023-02-15T04:58:14;19.00;;;14.63;;
27303;SDS011;14791;52.392;13.092;2023-02-15T05:00:42;15.47;;;13.13;;
27303;SDS011;14791;52.392;13.092;2023-02-15T05:03:11;18.00;;;14.53;;
27303;SDS011;14791;52.392;13.092;2023-02-15T05:05:40;17.93;;;14.53;;
27303;SDS011;14791;52.392;13.092;2023-02-15T05:08:10;17.23;;;14.73;;
27303;SDS011;14791;52.392;13.092;2023-02-15T05:10:39;16.37;;;14.17;;
27303;SDS011;14791;52.392;13.092;2023-02-15T05:13:08;22.97;;;14.37;;
27303;SDS011;14791;52.392;13.092;2023-02-15T05:15:37;13.03;;;11.63;;
27303;SDS011;14791;52.392;13.092;2023-02-15T05:18:06;20.03;;;13.77;;
27303;SDS011;14791;52.392;13.092;2023-02-15T05:20:35;22.07;;;14.53;;
27303;SDS011;14791;52.392;13.092;2023-02-15T05:23:04;27.13;;;14.77;;
27303;SDS011;14791;52.392;13.092;2023-02-15T05:25:33;30.67;;;15.10;;
27303;SDS011;14791;52.392;13.092;2023-02-15T05:28:20;27.13;;;16.57;;
27303;SDS011;14791;52.392;13.092;2023-02-15T05:30:50;46.77;;;14.10;;
27303;SDS011;14791;52.392;13.092;2023-02-15T05:33:21;25.00;;;13.93;;
27303;SDS011;14791;52.392;13.092;2023-02-15T05:35:50;28.87;;;14.63;;
27303;SDS011;14791;52.392;13.092;2023-02-15T05:38:19;22.23;;;13.63;;
27303;SDS011;14791;52.392;13.092;2023-02-15T05:40:48;14.90;;;11.80;;
27303;SDS011;14791;52.392;13.092;2023-02-15T05:43:18;17.93;;;13.10;;
27303;SDS011;14791;52.392;13.092;2023-02-15T05:45:47;14.20;;;12.73;;
27303;SDS011;14791;52.392;13.092;2023-02-15T05:48:18;17.53;;;12.63;;
27303;SDS011;14791;52.392;13.092;2023-02-15T05:53:36;16.40;;;12.73;;
27303;SDS011;14791;52.392;13.092;2023-02-15T05:56:07;19.43;;;12.70;;
27303;SDS011;14791;52.392;13.092;2023-02-15T05:58:38;23.70;;;13.70;;
27303;SDS011;14791;52.392;13.092;2023-02-15T06:01:09;16.07;;;12.50;;
27303;SDS011;14791;52.392;13.092;2023-02-15T06:03:40;18.97;;;13.23;;
27303;SDS011;14791;52.392;13.092;2023-02-15T06:06:09;16.13;;;13.20;;
27303;SDS011;14791;52.392;13.092;2023-02-15T06:08:39;15.50;;;12.00;;
27303;SDS011;14791;52.392;13.092;2023-02-15T06:11:08;14.13;;;11.23;;
27303;SDS011;14791;52.392;13.092;2023-02-15T06:13:37;36.93;;;12.10;;
27303;SDS011;14791;52.392;13.092;2023-02-15T06:16:06;10.90;;;9.80;;
27303;SDS011;14791;52.392;13.092;2023-02-15T06:18:35;16.53;;;13.27;;
27303;SDS011;14791;52.392;13.092;2023-02-15T06:21:04;18.50;;;12.27;;
27303;SDS011;14791;52.392;13.092;2023-02-15T06:23:33;15.63;;;11.40;;
27303;SDS011;14791;52.392;13.092;2023-02-15T06:26:02;14.17;;;12.57;;
27303;SDS011;14791;52.392;13.092;2023-02-15T06:28:31;14.40;;;12.80;;
27303;SDS011;14791;52.392;13.092;2023-02-15T06:31:00;15.60;;;13.80;;
27303;SDS011;14791;52.392;13.092;2023-02-15T06:33:29;15.70;;;13.27;;
27303;SDS011;14791;52.392;13.092;2023-02-15T06:36:00;15.37;;;11.30;;
27303;SDS011;14791;52.392;13.092;2023-02-15T06:38:29;18.93;;;11.47;;
27303;SDS011;14791;52.392;13.092;2023-02-15T06:40:58;12.13;;;9.70;;
27303;SDS011;14791;52.392;13.092;2023-02-15T06:43:27;14.10;;;12.43;;
27303;SDS011;14791;52.392;13.092;2023-02-15T06:45:56;15.53;;;11.73;;
27303;SDS011;14791;52.392;13.092;2023-02-15T06:48:25;16.27;;;13.47;;
27303;SDS011;14791;52.392;13.092;2023-02-15T06:50:55;14.93;;;12.27;;
27303;SDS011;14791;52.392;13.092;2023-02-15T06:53:24;13.67;;;12.37;;
27303;SDS011;14791;52.392;13.092;2023-02-15T06:55:59;14.47;;;12.33;;
27303;SDS011;14791;52.392;13.092;2023-02-15T06:58:33;12.13;;;10.83;;
27303;SDS011;14791;52.392;13.092;2023-02-15T07:01:04;15.57;;;11.00;;
27303;SDS011;14791;52.392;13.092;2023-02-15T07:03:34;13.37;;;11.50;;
27303;SDS011;14791;52.392;13.092;2023-02-15T07:06:04;16.83;;;12.33;;
27303;SDS011;14791;52.392;13.092;2023-02-15T07:08:35;13.77;;;11.70;;
27303;SDS011;14791;52.392;13.092;2023-02-15T07:11:05;12.90;;;11.67;;
27303;SDS011;14791;52.392;13.092;2023-02-15T07:13:52;11.83;;;10.73;;
27303;SDS011;14791;52.392;13.092;2023-02-15T07:16:21;14.70;;;12.33;;
27303;SDS011;14791;52.392;13.092;2023-02-15T07:18:50;12.43;;;11.13;;
27303;SDS011;14791;52.392;13.092;2023-02-15T07:21:19;17.40;;;13.97;;
27303;SDS011;14791;52.392;13.092;2023-02-15T07:23:47;16.40;;;13.60;;
27303;SDS011;14791;52.392;13.092;2023-02-15T07:26:16;12.60;;;11.40;;
27303;SDS011;14791;52.392;13.092;2023-02-15T07:28:45;14.70;;;12.20;;
27303;SDS011;14791;52.392;13.092;2023-02-15T07:31:14;12.27;;;11.07;;
27303;SDS011;14791;52.392;13.092;2023-02-15T07:33:43;12.77;;;11.47;;
27303;SDS011;14791;52.392;13.092;2023-02-15T07:36:12;13.67;;;11.93;;
27303;SDS011;14791;52.392;13.092;2023-02-15T07:38:41;11.67;;;10.57;;
27303;SDS011;14791;52.392;13.092;2023-02-15T07:41:12;10.30;;;9.30;;
27303;SDS011;14791;52.392;13.092;2023-02-15T07:43:43;12.03;;;10.90;;
27303;SDS011;14791;52.392;13.092;2023-02-15T07:46:14;15.47;;;12.67;;
27303;SDS011;14791;52.392;13.092;2023-02-15T07:48:44;13.80;;;12.40;;
27303;SDS011;14791;52.392;13.092;2023-02-15T07:51:14;18.73;;;12.30;;
27303;SDS011;14791;52.392;13.092;2023-02-15T07:53:43;18.03;;;12.23;;
27303;SDS011;14791;52.392;13.092;2023-02-15T07:56:12;12.37;;;11.17;;
27303;SDS011;14791;52.392;13.092;2023-02-15T07:58:42;13.50;;;12.00;;
27303;SDS011;14791;52.392;13.092;2023-02-15T08:01:23;14.33;;;11.33;;
27303;SDS011;14791;52.392;13.092;2023-02-15T08:03:53;12.30;;;11.20;;
27303;SDS011;14791;52.392;13.092;2023-02-15T08:06:23;14.07;;;12.63;;
27303;SDS011;14791;52.392;13.092;2023-02-15T08:09:15;12.77;;;11.60;;
27303;SDS011;14791;52.392;13.092;2023-02-15T08:11:44;13.73;;;12.50;;
27303;SDS011;14791;52.392;13.092;2023-02-15T08:14:16;13.13;;;11.83;;
27303;SDS011;14791;52.392;13.092;2023-02-15T08:16:48;13.50;;;12.20;;
27303;SDS011;14791;52.392;13.092;2023-02-15T08:19:20;14.30;;;12.80;;
27303;SDS011;14791;52.392;13.092;2023-02-15T08:21:51;13.17;;;11.67;;
27303;SDS011;14791;52.392;13.092;2023-02-15T08:24:22;13.00;;;11.70;;
27303;SDS011;14791;52.392;13.092;2023-02-15T08:26:52;12.47;;;11.27;;
27303;SDS011;14791;52.392;13.092;2023-02-15T08:29:22;13.80;;;12.40;;
27303;SDS011;14791;52.392;13.092;2023-02-15T08:31:54;13.33;;;11.70;;
27303;SDS011;14791;52.392;13.092;2023-02-15T08:34:30;14.57;;;12.67;;
27303;SDS011;14791;52.392;13.092;2023-02-15T08:37:01;13.47;;;12.13;;
27303;SDS011;14791;52.392;13.092;2023-02-15T08:39:30;13.03;;;11.73;;
27303;SDS011;14791;52.392;13.092;2023-02-15T08:41:59;14.17;;;12.80;;
27303;SDS011;14791;52.392;13.092;2023-02-15T08:44:28;14.43;;;12.93;;
27303;SDS011;14791;52.392;13.092;2023-02-15T08:46:57;13.97;;;12.50;;
27303;SDS011;14791;52.392;13.092;2023-02-15T08:49:28;14.50;;;12.60;;
27303;SDS011;14791;52.392;13.092;2023-02-15T08:51:57;14.00;;;12.60;;
27303;SDS011;14791;52.392;13.092;2023-02-15T08:54:26;15.07;;;13.53;;
27303;SDS011;14791;52.392;13.092;2023-02-15T08:56:55;14.80;;;13.27;;
27303;SDS011;14791;52.392;13.092;2023-02-15T08:59:24;16.90;;;14.00;;
27303;SDS011;14791;52.392;13.092;2023-02-15T09:01:54;15.10;;;13.47;;
27303;SDS011;14791;52.392;13.092;2023-02-15T09:04:23;14.87;;;13.27;;
27303;SDS011;14791;52.392;13.092;2023-02-15T09:06:52;14.83;;;13.33;;
27303;SDS011;14791;52.392;13.092;2023-02-15T09:09:22;15.10;;;13.60;;
27303;SDS011;14791;52.392;13.092;2023-02-15T09:11:51;15.23;;;13.63;;
27303;SDS011;14791;52.392;13.092;2023-02-15T09:14:20;15.97;;;13.73;;
27303;SDS011;14791;52.392;13.092;2023-02-15T09:16:51;15.27;;;13.70;;
27303;SDS011;14791;52.392;13.092;2023-02-15T09:19:21;12.70;;;11.60;;
27303;SDS011;14791;52.392;13.092;2023-02-15T09:21:51;14.37;;;12.93;;
27303;SDS011;14791;52.392;13.092;2023-02-15T09:24:20;14.73;;;13.33;;
27303;SDS011;14791;52.392;13.092;2023-02-15T09:26:50;15.63;;;14.10;;
27303;SDS011;14791;52.392;13.092;2023-02-15T09:29:18;16.37;;;14.73;;
27303;SDS011;14791;52.392;13.092;2023-02-15T09:31:49;16.13;;;13.07;;
27303;SDS011;14791;52.392;13.092;2023-02-15T09:34:21;14.30;;;12.77;;
27303;SDS011;14791;52.392;13.092;2023-02-15T09:36:50;16.73;;;15.07;;
27303;SDS011;14791;52.392;13.092;2023-02-15T09:39:24;17.60;;;15.90;;
27303;SDS011;14791;52.392;13.092;2023-02-15T09:42:04;16.03;;;14.50;;
27303;SDS011;14791;52.392;13.092;2023-02-15T09:44:50;14.50;;;13.10;;
27303;SDS011;14791;52.392;13.092;2023-02-15T09:50:37;16.53;;;14.83;;
27303;SDS011;14791;52.392;13.092;2023-02-15T09:56:19;16.80;;;15.03;;
27303;SDS011;14791;52.392;13.092;2023-02-15T10:07:29;16.13;;;14.37;;
27303;SDS011;14791;52.392;13.092;2023-02-15T10:10:10;16.33;;;14.73;;
27303;SDS011;14791;52.392;13.092;2023-02-15T10:18:51;17.20;;;15.40;;
27303;SDS011;14791;52.392;13.092;2023-02-15T10:21:45;16.07;;;14.43;;
27303;SDS011;14791;52.392;13.092;2023-02-15T10:27:23;15.43;;;13.93;;
27303;SDS011;14791;52.392;13.092;2023-02-15T10:30:14;17.37;;;15.47;;
27303;SDS011;14791;52.392;13.092;2023-02-15T10:32:53;17.77;;;15.40;;
27303;SDS011;14791;52.392;13.092;2023-02-15T10:52:57;15.83;;;14.30;;
27303;SDS011;14791;52.392;13.092;2023-02-15T10:54:52;16.87;;;15.20;;
27303;SDS011;14791;52.392;13.092;2023-02-15T11:05:32;17.70;;;15.90;;
27303;SDS011;14791;52.392;13.092;2023-02-15T11:08:03;17.20;;;15.60;;
27303;SDS011;14791;52.392;13.092;2023-02-15T11:10:45;17.17;;;15.47;;
27303;SDS011;14791;52.392;13.092;2023-02-15T11:13:22;15.57;;;14.07;;
27303;SDS011;14791;52.392;13.092;2023-02-15T11:18:37;18.10;;;15.93;;
27303;SDS011;14791;52.392;13.092;2023-02-15T11:23:59;16.70;;;15.00;;
27303;SDS011;14791;52.392;13.092;2023-02-15T11:26:37;17.93;;;16.10;;
27303;SDS011;14791;52.392;13.092;2023-02-15T11:32:17;17.37;;;15.77;;
27303;SDS011;14791;52.392;13.092;2023-02-15T11:34:56;16.83;;;15.13;;
27303;SDS011;14791;52.392;13.092;2023-02-15T11:37:55;15.03;;;13.57;;
27303;SDS011;14791;52.392;13.092;2023-02-15T11:43:33;18.83;;;16.00;;
27303;SDS011;14791;52.392;13.092;2023-02-15T11:46:06;14.03;;;12.70;;
27303;SDS011;14791;52.392;13.092;2023-02-15T11:48:38;16.67;;;15.03;;
27303;SDS011;14791;52.392;13.092;2023-02-15T11:51:20;15.63;;;14.10;;
27303;SDS011;14791;52.392;13.092;2023-02-15T11:53:50;14.43;;;13.03;;
27303;SDS011;14791;52.392;13.092;2023-02-15T11:56:26;16.53;;;15.00;;
27303;SDS011;14791;52.392;13.092;2023-02-15T11:59:05;17.23;;;15.53;;
27303;SDS011;14791;52.392;13.092;2023-02-15T12:01:45;17.40;;;15.60;;
27303;SDS011;14791;52.392;13.092;2023-02-15T12:07:04;13.53;;;12.27;;
27303;SDS011;14791;52.392;13.092;2023-02-15T12:12:31;9.60;;;8.77;;
27303;SDS011;14791;52.392;13.092;2023-02-15T12:15:04;12.10;;;10.90;;
27303;SDS011;14791;52.392;13.092;2023-02-15T12:23:00;14.47;;;13.07;;
27303;SDS011;14791;52.392;13.092;2023-02-15T12:25:39;12.50;;;11.40;;
27303;SDS011;14791;52.392;13.092;2023-02-15T12:28:26;15.27;;;13.87;;
27303;SDS011;14791;52.392;13.092;2023-02-15T12:30:56;15.77;;;14.17;;
27303;SDS011;14791;52.392;13.092;2023-02-15T12:34:29;16.20;;;14.50;;
27303;SDS011;14791;52.392;13.092;2023-02-15T12:36:19;14.27;;;13.03;;
27303;SDS011;14791;52.392;13.092;2023-02-15T12:39:03;14.17;;;12.97;;
27303;SDS011;14791;52.392;13.092;2023-02-15T12:41:37;14.77;;;13.47;;
27303;SDS011;14791;52.392;13.092;2023-02-15T12:44:18;14.57;;;13.13;;
27303;SDS011;14791;52.392;13.092;2023-02-15T12:47:03;12.17;;;11.17;;
27303;SDS011;14791;52.392;13.092;2023-02-15T12:49:40;12.80;;;11.80;;
27303;SDS011;14791;52.392;13.092;2023-02-15T12:52:22;13.83;;;12.63;;
27303;SDS011;14791;52.392;13.092;2023-02-15T12:54:49;12.80;;;11.77;;
27303;SDS011;14791;52.392;13.092;2023-02-15T12:57:29;14.13;;;12.77;;
27303;SDS011;14791;52.392;13.092;2023-02-15T13:00:02;13.73;;;12.33;;
27303;SDS011;14791;52.392;13.092;2023-02-15T13:05:21;11.60;;;10.57;;
27303;SDS011;14791;52.392;13.092;2023-02-15T13:07:53;10.50;;;9.73;;
27303;SDS011;14791;52.392;13.092;2023-02-15T13:10:31;10.30;;;9.50;;
27303;SDS011;14791;52.392;13.092;2023-02-15T13:13:09;10.28;;;9.63;;
27303;SDS011;14791;52.392;13.092;2023-02-15T13:15:40;9.45;;;8.85;;
27303;SDS011;14791;52.392;13.092;2023-02-15T13:18:15;7.28;;;6.87;;
27303;SDS011;14791;52.392;13.092;2023-02-15T13:20:45;10.95;;;10.15;;
27303;SDS011;14791;52.392;13.092;2023-02-15T13:23:22;8.98;;;8.48;;
27303;SDS011;14791;52.392;13.092;2023-02-15T13:25:51;8.20;;;7.70;;
27303;SDS011;14791;52.392;13.092;2023-02-15T13:28:23;7.15;;;6.85;;
27303;SDS011;14791;52.392;13.092;2023-02-15T13:30:56;6.72;;;6.37;;
27303;SDS011;14791;52.392;13.092;2023-02-15T13:33:27;7.00;;;6.60;;
27303;SDS011;14791;52.392;13.092;2023-02-15T13:36:09;6.90;;;6.58;;
27303;SDS011;14791;52.392;13.092;2023-02-15T13:38:42;6.40;;;6.10;;
27303;SDS011;14791;52.392;13.092;2023-02-15T13:41:30;8.20;;;7.60;;
27303;SDS011;14791;52.392;13.092;2023-02-15T13:44:01;10.40;;;9.73;;
27303;SDS011;14791;52.392;13.092;2023-02-15T13:46:51;9.85;;;9.25;;
27303;SDS011;14791;52.392;13.092;2023-02-15T13:55:02;9.85;;;9.23;;
27303;SDS011;14791;52.392;13.092;2023-02-15T14:01:39;8.48;;;7.92;;
27303;SDS011;14791;52.392;13.092;2023-02-15T14:04:02;8.40;;;7.90;;
27303;SDS011;14791;52.392;13.092;2023-02-15T14:06:44;7.97;;;7.58;;
27303;SDS011;14791;52.392;13.092;2023-02-15T14:09:39;11.00;;;10.13;;
27303;SDS011;14791;52.392;13.092;2023-02-15T14:12:11;8.38;;;7.97;;
27303;SDS011;14791;52.392;13.092;2023-02-15T14:21:02;6.85;;;6.55;;
27303;SDS011;14791;52.392;13.092;2023-02-15T14:26:21;7.00;;;6.72;;
27303;SDS011;14791;52.392;13.092;2023-02-15T14:29:13;6.20;;;6.00;;
27303;SDS011;14791;52.392;13.092;2023-02-15T14:31:57;6.78;;;6.47;;
27303;SDS011;14791;52.392;13.092;2023-02-15T14:34:30;6.55;;;6.25;;
27303;SDS011;14791;52.392;13.092;2023-02-15T14:37:00;6.53;;;6.20;;
27303;SDS011;14791;52.392;13.092;2023-02-15T14:39:56;6.58;;;6.28;;
27303;SDS011;14791;52.392;13.092;2023-02-15T14:42:25;6.72;;;6.42;;
27303;SDS011;14791;52.392;13.092;2023-02-15T14:45:25;6.90;;;6.60;;
27303;SDS011;14791;52.392;13.092;2023-02-15T14:47:48;7.03;;;6.72;;
27303;SDS011;14791;52.392;13.092;2023-02-15T14:50:42;6.12;;;5.85;;
27303;SDS011;14791;52.392;13.092;2023-02-15T14:53:36;5.78;;;5.58;;
27303;SDS011;14791;52.392;13.092;2023-02-15T14:55:43;6.60;;;6.30;;
27303;SDS011;14791;52.392;13.092;2023-02-15T14:58:12;8.05;;;7.55;;
27303;SDS011;14791;52.392;13.092;2023-02-15T15:00:42;7.78;;;7.30;;
27303;SDS011;14791;52.392;13.092;2023-02-15T15:03:12;7.00;;;6.58;;
27303;SDS011;14791;52.392;13.092;2023-02-15T15:05:50;6.97;;;6.78;;
27303;SDS011;14791;52.392;13.092;2023-02-15T15:08:55;7.78;;;7.28;;
27303;SDS011;14791;52.392;13.092;2023-02-15T15:14:11;7.28;;;6.90;;
27303;SDS011;14791;52.392;13.092;2023-02-15T15:16:48;6.83;;;6.42;;
27303;SDS011;14791;52.392;13.092;2023-02-15T15:22:18;7.35;;;6.72;;
27303;SDS011;14791;52.392;13.092;2023-02-15T15:25:03;7.28;;;6.90;;
27303;SDS011;14791;52.392;13.092;2023-02-15T15:27:52;7.10;;;6.80;;
27303;SDS011;14791;52.392;13.092;2023-02-15T15:51:14;6.80;;;6.50;;
27303;SDS011;14791;52.392;13.092;2023-02-15T15:54:05;8.13;;;7.72;;
27303;SDS011;14791;52.392;13.092;2023-02-15T15:57:06;7.58;;;7.22;;
27303;SDS011;14791;52.392;13.092;2023-02-15T16:00:27;7.00;;;6.70;;
27303;SDS011;14791;52.392;13.092;2023-02-15T16:03:15;7.53;;;7.20;;
27303;SDS011;14791;52.392;13.092;2023-02-15T16:09:24;7.00;;;6.60;;
27303;SDS011;14791;52.392;13.092;2023-02-15T16:12:26;8.48;;;7.90;;
27303;SDS011;14791;52.392;13.092;2023-02-15T16:17:59;8.23;;;7.67;;
27303;SDS011;14791;52.392;13.092;2023-02-15T16:20:29;8.57;;;7.83;;
27303;SDS011;14791;52.392;13.092;2023-02-15T16:25:44;9.97;;;9.27;;
27303;SDS011;14791;52.392;13.092;2023-02-15T16:28:34;9.37;;;8.67;;
27303;SDS011;14791;52.392;13.092;2023-02-15T16:31:13;9.43;;;8.63;;
27303;SDS011;14791;52.392;13.092;2023-02-15T16:33:46;10.90;;;9.90;;
27303;SDS011;14791;52.392;13.092;2023-02-15T16:36:25;9.53;;;8.77;;
27303;SDS011;14791;52.392;13.092;2023-02-15T16:39:17;8.73;;;8.13;;
27303;SDS011;14791;52.392;13.092;2023-02-15T16:41:50;9.07;;;8.27;;
27303;SDS011;14791;52.392;13.092;2023-02-15T16:44:22;9.57;;;8.67;;
27303;SDS011;14791;52.392;13.092;2023-02-15T16:47:00;8.63;;;7.93;;
27303;SDS011;14791;52.392;13.092;2023-02-15T16:49:37;8.00;;;7.57;;
27303;SDS011;14791;52.392;13.092;2023-02-15T16:52:11;8.37;;;7.77;;
27303;SDS011;14791;52.392;13.092;2023-02-15T16:54:54;8.80;;;8.23;;
27303;SDS011;14791;52.392;13.092;2023-02-15T16:57:23;9.27;;;8.47;;
27303;SDS011;14791;52.392;13.092;2023-02-15T16:59:57;10.33;;;9.40;;
27303;SDS011;14791;52.392;13.092;2023-02-15T17:10:44;9.53;;;8.93;;
27303;SDS011;14791;52.392;13.092;2023-02-15T17:13:17;10.03;;;9.30;;
27303;SDS011;14791;52.392;13.092;2023-02-15T17:18:34;12.60;;;11.50;;
27303;SDS011;14791;52.392;13.092;2023-02-15T17:21:12;12.87;;;11.87;;
27303;SDS011;14791;52.392;13.092;2023-02-15T17:23:49;13.27;;;12.27;;
27303;SDS011;14791;52.392;13.092;2023-02-15T17:26:20;14.63;;;13.33;;
27303;SDS011;14791;52.392;13.092;2023-02-15T17:31:50;15.63;;;14.23;;
27303;SDS011;14791;52.392;13.092;2023-02-15T17:40:46;16.07;;;14.57;;
27303;SDS011;14791;52.392;13.092;2023-02-15T17:43:43;16.60;;;15.03;;
27303;SDS011;14791;52.392;13.092;2023-02-15T17:46:20;16.87;;;15.20;;